메인 페이지
METAR-TAF:

METAR-TAF

공항 :

다르에스살람, 탄자니아

위도: 06-52S, 경도: 039-12E, 고도: 55m

현재 날씨관측

예보는 1 시간 28분 전, 00:00시(UTC)에 발표되었습니다.
무풍
온도 26°C
습도 89%
기압 1011 hPa
시정 10km 이상
고도 1200ft 상공 구름 조금

METAR: HTDA 250000Z 00000KT 9999 FEW012 26/24 Q1011 NOSIG

시각: 04:28 (01:28 UTC)

예보

예보는 2 시간 28분 전, 23:00시(UTC)에 발표되었습니다.
예보 대상 시간: 25일 00시부터 26일 06시까지 (UTC)
북북동10kt
시정 10km 이상
고도 1100ft 상공 구름 많음
확률 30% :
일시적
25일 09시부터 25일 14시까지 (UTC)
소나기
전환 중
25일 13시부터 25일 16시까지 (UTC)
고도 2200ft 상공 구름 보통

TAF: HTDA 242300Z 2500/2606 02010KT 9999 BKN011 PROB30 TEMPO 2509/2514 SHRA BECMG 2513/2516 SCT022

4,000개 이상의 공항 관측 자료 및 예보 (METAR 및 TAF 보고).

지도상에서 검색 가능한 기상관측소가 노란 점과 빨간 점으로 표시되어 있습니다.

기상관측소 명을 보려면 표시 위로 마우스를 이동하세요.

날씨 관측과 예보를 보려면 클릭하세요.

지도 변경 : 확대하려면 엑스 표시가 있는 녹색 버튼, 축소하려면 빼기 표시가 있는 녹색 버튼, 다음 페이지의 지도를 보려면 녹색 화살표를 클릭하세요.


METAR-TAF: